createdAt,value
2023-06-07T00:00:12.689Z,102242.66
2023-06-07T00:05:17.050Z,102234.94
2023-06-07T00:10:20.072Z,102233.16
2023-06-07T00:15:23.061Z,102234.16
2023-06-07T00:20:27.612Z,102235.91
2023-06-07T00:25:31.365Z,102231.59
2023-06-07T00:30:34.401Z,102227.34
2023-06-07T00:35:38.658Z,102231.94
2023-06-07T00:40:44.697Z,102236.28
2023-06-07T00:45:47.633Z,102238.91
2023-06-07T00:50:52.897Z,102231.13
2023-06-07T00:55:55.951Z,102227.72
2023-06-07T01:01:00.461Z,102229.44
2023-06-07T01:06:04.848Z,102234.75
2023-06-07T01:11:08.914Z,102226.09
2023-06-07T01:16:12.660Z,102230.84
2023-06-07T01:21:20.268Z,102228.13
2023-06-07T01:26:27.956Z,102234.16
2023-06-07T01:31:31.021Z,102229.78
2023-06-07T01:36:34.040Z,102227.19
2023-06-07T01:41:38.570Z,102223.75
2023-06-07T01:46:42.499Z,102227.38
2023-06-07T01:51:45.638Z,102236.94
2023-06-07T01:56:59.040Z,102234.38
2023-06-07T02:02:06.430Z,102232.59
2023-06-07T02:07:10.874Z,102226.44
2023-06-07T02:12:15.671Z,102227.25
2023-06-07T02:17:18.700Z,102233.34
2023-06-07T02:22:21.860Z,102224.50
2023-06-07T02:27:26.306Z,102224.59
2023-06-07T02:32:30.465Z,102215.94
2023-06-07T02:37:33.624Z,102210.47
2023-06-07T02:42:38.143Z,102214.72
2023-06-07T02:47:41.441Z,102211.97
2023-06-07T02:52:47.095Z,102210.03
2023-06-07T02:57:51.919Z,102216.06
2023-06-07T03:02:57.723Z,102215.94
2023-06-07T03:08:01.358Z,102210.63
2023-06-07T03:13:07.986Z,102212.38
2023-06-07T03:18:16.615Z,102217.41
2023-06-07T03:23:25.095Z,102207.84
2023-06-07T03:28:32.204Z,102216.50
2023-06-07T03:33:35.801Z,102210.25
2023-06-07T03:38:38.916Z,102210.06
2023-06-07T03:43:43.602Z,102215.19
2023-06-07T03:48:49.139Z,102210.75
2023-06-07T03:53:54.138Z,102206.22
2023-06-07T03:59:02.865Z,102201.00
2023-06-07T04:04:08.141Z,102193.03
2023-06-07T04:09:11.155Z,102192.84
2023-06-07T04:14:15.527Z,102186.06
2023-06-07T04:19:18.951Z,102189.25
2023-06-07T04:24:23.062Z,102188.25
2023-06-07T04:29:27.991Z,102186.38
2023-06-07T04:34:33.128Z,102186.16
2023-06-07T04:39:37.595Z,102195.56
2023-06-07T04:44:43.698Z,102196.00
2023-06-07T04:49:53.310Z,102192.06
2023-06-07T04:54:59.393Z,102199.00
2023-06-07T05:00:13.161Z,102197.00
2023-06-07T05:05:20.505Z,102205.31
2023-06-07T05:10:25.026Z,102193.88
2023-06-07T05:15:29.839Z,102199.13
2023-06-07T05:20:34.014Z,102195.53
2023-06-07T05:25:40.073Z,102204.16
2023-06-07T05:30:45.064Z,102192.44
2023-06-07T05:35:48.608Z,102200.81
2023-06-07T05:40:55.116Z,102198.13
2023-06-07T05:45:59.577Z,102203.25
2023-06-07T05:51:04.055Z,102198.19
2023-06-07T05:56:11.315Z,102199.78
2023-06-07T06:01:15.946Z,102206.06
2023-06-07T06:06:20.212Z,102200.44
2023-06-07T06:11:23.530Z,102207.31
2023-06-07T06:16:28.330Z,102208.72
2023-06-07T06:21:32.477Z,102209.63
2023-06-07T06:26:36.635Z,102215.84
2023-06-07T06:31:42.238Z,102213.84
2023-06-07T06:36:45.205Z,102218.97
2023-06-07T06:41:48.171Z,102228.19
2023-06-07T06:46:59.141Z,102219.75
2023-06-07T06:52:02.185Z,102225.31
2023-06-07T06:57:07.025Z,102226.09
2023-06-07T07:02:12.271Z,102232.41
2023-06-07T07:07:15.608Z,102219.69
2023-06-07T07:12:18.884Z,102218.06
2023-06-07T07:17:23.319Z,102215.47
2023-06-07T07:22:28.863Z,102210.50
2023-06-07T07:27:33.088Z,102220.75
2023-06-07T07:32:37.432Z,102212.63
2023-06-07T07:37:40.847Z,102214.47
2023-06-07T07:42:43.968Z,102210.09
2023-06-07T07:47:48.288Z,102213.22
2023-06-07T07:52:51.423Z,102211.50
2023-06-07T07:57:54.354Z,102207.34
2023-06-07T08:02:58.895Z,102195.38
2023-06-07T08:08:03.835Z,102195.13
2023-06-07T08:13:06.813Z,102207.53
2023-06-07T08:18:11.287Z,102216.91
2023-06-07T08:23:14.565Z,102207.81
2023-06-07T08:28:18.011Z,102204.97
2023-06-07T08:33:22.348Z,102214.31
2023-06-07T08:38:25.209Z,102197.59
2023-06-07T08:43:28.292Z,102192.53
2023-06-07T08:48:35.450Z,102198.94
2023-06-07T08:53:43.888Z,102191.69
2023-06-07T08:58:46.973Z,102199.59
2023-06-07T09:03:53.825Z,102206.66
2023-06-07T09:08:59.424Z,102208.09
2023-06-07T09:14:02.733Z,102205.03
2023-06-07T09:19:07.395Z,102200.16
2023-06-07T09:24:10.415Z,102195.88
2023-06-07T09:29:13.430Z,102196.19
2023-06-07T09:34:22.987Z,102188.56
2023-06-07T09:39:27.584Z,102188.31
2023-06-07T09:44:32.426Z,102189.69
2023-06-07T09:49:38.682Z,102192.28
2023-06-07T09:54:42.881Z,102189.44
2023-06-07T09:59:59.465Z,102192.47
2023-06-07T10:05:04.134Z,102196.16
2023-06-07T10:10:11.158Z,102201.41
2023-06-07T10:15:16.712Z,102201.00
2023-06-07T10:20:26.869Z,102191.34
2023-06-07T10:25:32.484Z,102186.00
2023-06-07T10:30:37.267Z,102183.25
2023-06-07T10:35:41.833Z,102178.09
2023-06-07T10:40:45.315Z,102161.03
2023-06-07T10:45:48.326Z,102159.75
2023-06-07T10:50:52.934Z,102162.66
2023-06-07T10:55:56.472Z,102160.31
2023-06-07T11:01:03.751Z,102149.91
2023-06-07T11:06:10.149Z,102158.13
2023-06-07T11:11:52.694Z,102160.66
2023-06-07T11:16:55.804Z,102160.88
2023-06-07T11:22:09.377Z,102161.09
2023-06-07T11:27:16.055Z,102161.31
2023-06-07T11:32:19.260Z,102150.31
2023-06-07T11:37:24.001Z,102146.97
2023-06-07T11:42:27.290Z,102136.81
2023-06-07T11:47:30.364Z,102140.59
2023-06-07T11:52:34.848Z,102136.22
2023-06-07T11:57:39.423Z,102131.63
2023-06-07T12:02:42.870Z,102128.72
2023-06-07T12:07:58.506Z,102137.50
2023-06-07T12:13:10.633Z,102126.00
2023-06-07T12:18:14.763Z,102124.06
2023-06-07T12:23:22.892Z,102119.31
2023-06-07T12:28:26.905Z,102129.25
2023-06-07T12:33:30.317Z,102129.97
2023-06-07T12:38:34.779Z,102133.44
2023-06-07T12:43:37.846Z,102134.53
2023-06-07T12:48:40.943Z,102127.56
2023-06-07T12:53:45.763Z,102130.16
2023-06-07T12:58:48.846Z,102114.28
2023-06-07T13:03:51.948Z,102109.16
2023-06-07T13:09:08.432Z,102105.38
2023-06-07T13:14:11.681Z,102101.94
2023-06-07T13:19:14.633Z,102107.28
2023-06-07T13:24:19.629Z,102099.09
2023-06-07T13:29:22.677Z,102099.59
2023-06-07T13:34:25.701Z,102093.81
2023-06-07T13:39:30.150Z,102092.50
2023-06-07T13:44:33.394Z,102093.19
2023-06-07T13:49:38.909Z,102090.94
2023-06-07T13:54:44.179Z,102079.03
2023-06-07T13:59:47.561Z,102068.72
2023-06-07T14:04:50.940Z,102065.19
2023-06-07T14:09:55.363Z,102065.44
2023-06-07T14:14:58.460Z,102063.81
2023-06-07T14:20:01.559Z,102054.19
2023-06-07T14:25:07.614Z,102061.75
2023-06-07T14:30:11.528Z,102057.19
2023-06-07T14:35:14.744Z,102052.50
2023-06-07T14:40:19.991Z,102063.88
2023-06-07T14:45:25.814Z,102059.75
2023-06-07T14:50:29.063Z,102055.56
2023-06-07T14:55:33.567Z,102052.88
2023-06-07T15:00:36.998Z,102046.78
2023-06-07T15:05:40.104Z,102045.63
2023-06-07T15:10:44.389Z,102043.63
2023-06-07T15:15:47.536Z,102041.78
2023-06-07T15:20:50.711Z,102041.34
2023-06-07T15:25:55.055Z,102033.78
2023-06-07T15:30:58.140Z,102031.56
2023-06-07T15:36:01.094Z,102031.50
2023-06-07T15:41:08.125Z,102046.94
2023-06-07T15:46:12.242Z,102033.63
2023-06-07T15:51:15.384Z,102032.75
2023-06-07T15:56:19.781Z,102026.69
2023-06-07T16:01:22.980Z,102027.69
2023-06-07T16:06:26.014Z,102019.91
2023-06-07T16:11:30.523Z,102029.06
2023-06-07T16:16:33.573Z,102028.78
2023-06-07T16:21:37.450Z,102026.13
2023-06-07T16:26:41.703Z,102020.00
2023-06-07T16:31:44.578Z,102017.69
2023-06-07T16:36:47.638Z,102023.47
2023-06-07T16:41:52.163Z,102016.13
2023-06-07T16:46:56.667Z,102016.13
2023-06-07T16:52:00.144Z,102020.28
2023-06-07T16:57:06.264Z,102011.91
2023-06-07T17:02:09.341Z,102014.06
2023-06-07T17:07:12.461Z,102019.00
2023-06-07T17:12:16.744Z,102018.44
2023-06-07T17:17:19.773Z,102014.69
2023-06-07T17:22:22.908Z,102015.16
2023-06-07T17:27:27.307Z,102009.66
2023-06-07T17:32:30.334Z,102016.13
2023-06-07T17:37:33.245Z,102020.19
2023-06-07T17:42:37.562Z,102010.81
2023-06-07T17:47:47.701Z,102019.88
2023-06-07T17:52:50.910Z,102020.22
2023-06-07T17:57:55.356Z,102026.53
2023-06-07T18:02:58.507Z,102033.91
2023-06-07T18:08:01.668Z,102031.81
2023-06-07T18:13:06.321Z,102021.94
2023-06-07T18:18:09.397Z,102032.47
2023-06-07T18:23:13.460Z,102033.31
2023-06-07T18:28:17.883Z,102028.81
2023-06-07T18:33:28.679Z,102032.16
2023-06-07T18:38:31.761Z,102037.50
2023-06-07T18:43:36.112Z,102031.41
2023-06-07T18:48:39.043Z,102029.69
2023-06-07T18:53:42.160Z,102036.50
2023-06-07T18:58:47.025Z,102025.81
2023-06-07T19:03:50.313Z,102030.75
2023-06-07T19:08:53.410Z,102027.28
2023-06-07T19:13:57.834Z,102033.34
2023-06-07T19:19:00.870Z,102040.94
2023-06-07T19:24:04.565Z,102040.81
2023-06-07T19:29:09.085Z,102048.47
2023-06-07T19:34:12.075Z,102043.69
2023-06-07T19:39:15.109Z,102039.34
2023-06-07T19:44:19.460Z,102031.16
2023-06-07T19:49:22.637Z,102050.94
2023-06-07T19:54:25.756Z,102052.31
2023-06-07T19:59:30.052Z,102054.88
2023-06-07T20:04:34.169Z,102063.06
2023-06-07T20:09:39.816Z,102059.69
2023-06-07T20:14:44.210Z,102061.47
2023-06-07T20:19:47.335Z,102059.94
2023-06-07T20:24:50.592Z,102062.09
2023-06-07T20:29:54.907Z,102083.69
2023-06-07T20:34:58.902Z,102088.19
2023-06-07T20:40:02.401Z,102088.41
2023-06-07T20:45:08.377Z,102083.34
2023-06-07T20:50:11.651Z,102079.28
2023-06-07T20:55:14.627Z,102077.59
2023-06-07T21:00:19.997Z,102080.34
2023-06-07T21:05:22.980Z,102075.31
2023-06-07T21:10:26.137Z,102079.06
2023-06-07T21:15:30.502Z,102082.00
2023-06-07T21:20:33.508Z,102084.88
2023-06-07T21:25:36.420Z,102097.22
2023-06-07T21:30:40.715Z,102088.53
2023-06-07T21:35:43.591Z,102093.28
2023-06-07T21:40:46.517Z,102096.22
2023-06-07T21:45:50.937Z,102090.91
2023-06-07T21:50:53.803Z,102086.66
2023-06-07T21:55:56.720Z,102092.22
2023-06-07T22:01:00.992Z,102090.38
2023-06-07T22:06:03.976Z,102091.28
2023-06-07T22:11:06.850Z,102092.16
2023-06-07T22:16:11.208Z,102083.50
2023-06-07T22:21:14.717Z,102081.13
2023-06-07T22:26:17.516Z,102084.63
2023-06-07T22:31:21.717Z,102087.47
2023-06-07T22:36:32.680Z,102085.75
2023-06-07T22:41:35.846Z,102090.13
2023-06-07T22:46:40.158Z,102084.09
2023-06-07T22:51:43.568Z,102082.28
2023-06-07T22:56:46.467Z,102083.53
2023-06-07T23:01:51.063Z,102073.81
2023-06-07T23:06:54.134Z,102080.72
2023-06-07T23:12:00.241Z,102072.53
2023-06-07T23:17:06.211Z,102077.13
2023-06-07T23:22:11.420Z,102070.09
2023-06-07T23:27:14.279Z,102063.69
2023-06-07T23:32:18.602Z,102066.81
2023-06-07T23:37:21.470Z,102066.00
2023-06-07T23:42:24.358Z,102060.00
2023-06-07T23:47:28.806Z,102062.91
2023-06-07T23:52:31.802Z,102055.97
2023-06-07T23:57:34.701Z,102066.47
